sensor_id;sensor_type;location;lat;lon;timestamp;P1;durP1;ratioP1;P2;durP2;ratioP2
37789;SDS011;23628;51.434;6.988;2023-04-16T18:03:14;18.00;;;11.50;;
37789;SDS011;23628;51.434;6.988;2023-04-16T18:05:51;24.40;;;11.83;;
37789;SDS011;23628;51.434;6.988;2023-04-16T18:13:47;21.10;;;12.00;;
37789;SDS011;23628;51.434;6.988;2023-04-16T18:29:38;16.20;;;11.10;;
37789;SDS011;23628;51.434;6.988;2023-04-16T18:37:51;19.25;;;11.70;;
37789;SDS011;23628;51.434;6.988;2023-04-16T18:40:25;20.60;;;12.15;;
37789;SDS011;23628;51.434;6.988;2023-04-16T18:45:39;18.05;;;12.13;;
37789;SDS011;23628;51.434;6.988;2023-04-16T18:50:49;17.83;;;12.15;;
37789;SDS011;23628;51.434;6.988;2023-04-16T18:56:00;18.15;;;11.40;;
37789;SDS011;23628;51.434;6.988;2023-04-16T18:58:39;20.70;;;12.95;;
37789;SDS011;23628;51.434;6.988;2023-04-16T19:01:21;19.23;;;11.47;;
37789;SDS011;23628;51.434;6.988;2023-04-16T19:03:58;20.60;;;12.35;;
37789;SDS011;23628;51.434;6.988;2023-04-16T19:09:10;17.43;;;11.73;;
37789;SDS011;23628;51.434;6.988;2023-04-16T19:14:28;23.05;;;12.65;;
37789;SDS011;23628;51.434;6.988;2023-04-16T19:22:19;20.85;;;11.60;;
37789;SDS011;23628;51.434;6.988;2023-04-16T19:27:39;19.90;;;10.90;;
37789;SDS011;23628;51.434;6.988;2023-04-16T19:32:55;19.65;;;10.90;;
37789;SDS011;23628;51.434;6.988;2023-04-16T19:38:07;17.25;;;11.10;;
37789;SDS011;23628;51.434;6.988;2023-04-16T19:48:40;15.50;;;10.25;;
37789;SDS011;23628;51.434;6.988;2023-04-16T19:51:15;14.30;;;10.10;;
37789;SDS011;23628;51.434;6.988;2023-04-16T19:56:28;21.33;;;10.10;;
37789;SDS011;23628;51.434;6.988;2023-04-16T20:01:43;13.45;;;9.00;;
37789;SDS011;23628;51.434;6.988;2023-04-16T20:06:53;10.55;;;8.10;;
37789;SDS011;23628;51.434;6.988;2023-04-16T20:09:29;14.90;;;9.15;;
37789;SDS011;23628;51.434;6.988;2023-04-16T20:14:40;11.90;;;9.00;;
37789;SDS011;23628;51.434;6.988;2023-04-16T20:19:56;12.40;;;8.32;;
37789;SDS011;23628;51.434;6.988;2023-04-16T20:25:09;11.75;;;8.70;;
37789;SDS011;23628;51.434;6.988;2023-04-16T20:30:22;13.20;;;8.80;;
37789;SDS011;23628;51.434;6.988;2023-04-16T20:33:09;14.27;;;8.45;;
37789;SDS011;23628;51.434;6.988;2023-04-16T20:35:46;12.38;;;8.63;;
37789;SDS011;23628;51.434;6.988;2023-04-16T20:38:25;13.00;;;9.27;;
37789;SDS011;23628;51.434;6.988;2023-04-16T20:43:53;15.45;;;9.65;;
37789;SDS011;23628;51.434;6.988;2023-04-16T20:49:09;12.65;;;9.05;;
37789;SDS011;23628;51.434;6.988;2023-04-16T20:54:24;18.80;;;10.43;;
37789;SDS011;23628;51.434;6.988;2023-04-16T20:59:39;17.77;;;10.93;;
37789;SDS011;23628;51.434;6.988;2023-04-16T21:04:51;14.07;;;10.77;;
37789;SDS011;23628;51.434;6.988;2023-04-16T21:10:01;17.27;;;11.10;;
37789;SDS011;23628;51.434;6.988;2023-04-16T21:15:10;17.95;;;11.48;;
37789;SDS011;23628;51.434;6.988;2023-04-16T21:20:22;17.92;;;11.70;;
37789;SDS011;23628;51.434;6.988;2023-04-16T21:25:38;18.27;;;12.10;;
37789;SDS011;23628;51.434;6.988;2023-04-16T21:30:51;20.73;;;13.30;;
37789;SDS011;23628;51.434;6.988;2023-04-16T21:36:07;17.45;;;11.85;;
37789;SDS011;23628;51.434;6.988;2023-04-16T21:38:44;20.30;;;14.10;;
37789;SDS011;23628;51.434;6.988;2023-04-16T21:43:54;18.90;;;12.35;;
37789;SDS011;23628;51.434;6.988;2023-04-16T21:46:31;17.40;;;13.20;;
37789;SDS011;23628;51.434;6.988;2023-04-16T21:51:43;25.97;;;14.27;;
37789;SDS011;23628;51.434;6.988;2023-04-16T21:59:42;20.80;;;14.33;;
37789;SDS011;23628;51.434;6.988;2023-04-16T22:02:18;19.65;;;14.07;;
37789;SDS011;23628;51.434;6.988;2023-04-16T22:07:30;33.75;;;13.75;;
37789;SDS011;23628;51.434;6.988;2023-04-16T22:12:42;20.02;;;14.50;;
37789;SDS011;23628;51.434;6.988;2023-04-16T22:15:21;16.30;;;13.47;;
37789;SDS011;23628;51.434;6.988;2023-04-16T22:20:31;19.10;;;13.90;;
37789;SDS011;23628;51.434;6.988;2023-04-16T22:25:49;21.75;;;15.30;;
37789;SDS011;23628;51.434;6.988;2023-04-16T22:28:25;21.88;;;14.68;;
37789;SDS011;23628;51.434;6.988;2023-04-16T22:36:39;20.17;;;14.85;;
37789;SDS011;23628;51.434;6.988;2023-04-16T22:39:15;21.45;;;15.70;;
37789;SDS011;23628;51.434;6.988;2023-04-16T22:44:28;21.35;;;15.05;;
37789;SDS011;23628;51.434;6.988;2023-04-16T22:49:41;19.17;;;15.07;;
37789;SDS011;23628;51.434;6.988;2023-04-16T22:54:52;26.10;;;15.00;;
37789;SDS011;23628;51.434;6.988;2023-04-16T23:00:02;21.70;;;14.67;;
37789;SDS011;23628;51.434;6.988;2023-04-16T23:02:41;23.40;;;15.65;;
37789;SDS011;23628;51.434;6.988;2023-04-16T23:07:55;23.40;;;15.90;;
37789;SDS011;23628;51.434;6.988;2023-04-16T23:13:06;21.30;;;15.45;;
37789;SDS011;23628;51.434;6.988;2023-04-16T23:18:20;24.20;;;15.93;;
37789;SDS011;23628;51.434;6.988;2023-04-16T23:23:33;23.50;;;15.90;;
37789;SDS011;23628;51.434;6.988;2023-04-16T23:37:37;22.13;;;16.77;;
37789;SDS011;23628;51.434;6.988;2023-04-16T23:40:16;21.40;;;16.40;;
37789;SDS011;23628;51.434;6.988;2023-04-16T23:56:26;21.02;;;16.20;;
37789;SDS011;23628;51.434;6.988;2023-04-16T23:59:04;21.80;;;16.95;;
